X  Sluiten METAR luchtvaart weer gegevens      EHRD Rotterdam The Hague Airport
Temperatuur
4°C Temperatuur
-2°C Dauwpunt
65% Vochtigheid



Wind
10 KM/U
6 MPH
3 M/S
5 KTS



170°
Z
Huidig weer

Helder Helder
Luchtdruk 1036.91 (hPa) - 30.62 (inHg)
Zicht 6.2 (mijl) - 10 (km)
Vliegveld
Vliegveld code EHRD

Locatie : Rotterdam The Hague Airport
Afstand: 20 (km)

Metar:
EHRD 081025Z AUTO 17005KT 140V210 9999 NCD 04/M02 Q1037 NOSIG

Tijd: 08-02-2023 10:25 CET